createdAt,value
2018-01-30T00:01:44.755Z,5.36
2018-01-30T00:04:12.524Z,5.34
2018-01-30T00:06:40.524Z,5.28
2018-01-30T00:09:08.185Z,5.28
2018-01-30T00:11:36.094Z,5.26
2018-01-30T00:14:03.833Z,5.27
2018-01-30T00:16:31.479Z,5.29
2018-01-30T00:18:59.221Z,5.29
2018-01-30T00:21:26.926Z,5.30
2018-01-30T00:23:54.628Z,5.26
2018-01-30T00:26:22.387Z,5.31
2018-01-30T00:28:50.409Z,5.26
2018-01-30T00:31:18.321Z,5.24
2018-01-30T00:33:46.026Z,5.22
2018-01-30T00:36:13.746Z,5.23
2018-01-30T00:38:41.754Z,5.20
2018-01-30T00:41:09.513Z,5.22
2018-01-30T00:43:37.316Z,5.20
2018-01-30T00:46:05.089Z,5.18
2018-01-30T00:48:32.849Z,5.16
2018-01-30T00:51:00.516Z,5.13
2018-01-30T00:53:28.290Z,5.13
2018-01-30T00:55:56.030Z,5.15
2018-01-30T00:58:23.789Z,5.14
2018-01-30T01:00:51.541Z,5.10
2018-01-30T01:03:19.246Z,5.07
2018-01-30T01:05:46.973Z,5.05
2018-01-30T01:08:14.703Z,5.07
2018-01-30T01:10:42.411Z,5.07
2018-01-30T01:13:10.121Z,5.04
2018-01-30T01:15:37.847Z,5.04
2018-01-30T01:18:05.624Z,4.98
2018-01-30T01:20:33.291Z,4.98
2018-01-30T01:23:00.964Z,4.96
2018-01-30T01:25:28.640Z,4.92
2018-01-30T01:27:56.426Z,4.91
2018-01-30T01:30:24.119Z,4.89
2018-01-30T01:32:51.802Z,4.86
2018-01-30T01:35:19.514Z,4.85
2018-01-30T01:37:47.190Z,4.86
2018-01-30T01:40:14.872Z,4.84
2018-01-30T01:42:42.589Z,4.81
2018-01-30T01:45:10.304Z,4.82
2018-01-30T01:47:37.985Z,4.79
2018-01-30T01:50:05.618Z,4.77
2018-01-30T01:52:33.274Z,4.76
2018-01-30T01:55:01.189Z,4.76
2018-01-30T01:57:28.844Z,4.75
2018-01-30T01:59:56.602Z,4.74
2018-01-30T02:02:24.259Z,4.68
2018-01-30T02:04:52.308Z,4.68
2018-01-30T02:07:20.017Z,4.64
2018-01-30T02:09:47.693Z,4.63
2018-01-30T02:12:15.430Z,4.63
2018-01-30T02:14:43.115Z,4.62
2018-01-30T02:17:11.236Z,4.60
2018-01-30T02:19:38.887Z,4.60
2018-01-30T02:22:07.106Z,4.59
2018-01-30T02:24:34.865Z,4.57
2018-01-30T02:27:02.636Z,4.57
2018-01-30T02:29:30.425Z,4.55
2018-01-30T02:31:58.292Z,4.51
2018-01-30T02:34:25.981Z,4.49
2018-01-30T02:36:54.181Z,4.51
2018-01-30T02:39:22.173Z,4.49
2018-01-30T02:41:49.943Z,4.48
2018-01-30T02:44:17.684Z,4.49
2018-01-30T02:46:45.464Z,4.46
2018-01-30T02:49:13.234Z,4.42
2018-01-30T02:51:40.951Z,4.40
2018-01-30T02:54:08.746Z,4.40
2018-01-30T02:56:36.809Z,4.40
2018-01-30T02:59:04.596Z,4.39
2018-01-30T03:01:32.367Z,4.38
2018-01-30T03:04:00.225Z,4.38
2018-01-30T03:06:27.983Z,4.38
2018-01-30T03:08:55.765Z,4.36
2018-01-30T03:11:23.567Z,4.35
2018-01-30T03:13:51.299Z,4.36
2018-01-30T03:16:19.644Z,4.36
2018-01-30T03:18:47.824Z,4.36
2018-01-30T03:21:15.620Z,4.32
2018-01-30T03:23:43.429Z,4.32
2018-01-30T03:26:11.283Z,4.31
2018-01-30T03:28:39.292Z,4.34
2018-01-30T03:31:07.406Z,4.35
2018-01-30T03:33:35.973Z,4.32
2018-01-30T03:36:03.859Z,4.32
2018-01-30T03:38:31.920Z,4.33
2018-01-30T03:40:59.854Z,4.37
2018-01-30T03:43:27.665Z,4.40
2018-01-30T03:45:55.692Z,4.42
2018-01-30T03:48:23.446Z,4.40
2018-01-30T03:50:51.227Z,4.38
2018-01-30T03:53:19.124Z,4.39
2018-01-30T03:55:46.862Z,4.35
2018-01-30T03:58:14.588Z,4.33
2018-01-30T04:00:42.776Z,4.32
2018-01-30T04:03:10.526Z,4.33
2018-01-30T04:05:38.934Z,4.35
2018-01-30T04:08:06.610Z,4.34
2018-01-30T04:10:34.890Z,4.34
2018-01-30T04:13:02.781Z,4.34
2018-01-30T04:15:30.904Z,4.33
2018-01-30T04:17:58.677Z,4.33
2018-01-30T04:20:26.429Z,4.39
2018-01-30T04:22:54.523Z,4.41
2018-01-30T04:25:22.526Z,4.42
2018-01-30T04:27:51.377Z,4.44
2018-01-30T04:30:19.216Z,4.44
2018-01-30T04:32:46.966Z,4.43
2018-01-30T04:35:14.672Z,4.43
2018-01-30T04:37:42.547Z,4.44
2018-01-30T04:40:10.264Z,4.49
2018-01-30T04:42:38.200Z,4.48
2018-01-30T04:45:06.084Z,4.44
2018-01-30T04:47:37.085Z,4.44
2018-01-30T04:50:05.694Z,4.47
2018-01-30T04:52:33.464Z,4.45
2018-01-30T04:55:01.334Z,4.40
2018-01-30T04:57:29.187Z,4.41
2018-01-30T04:59:57.238Z,4.41
2018-01-30T05:02:25.018Z,4.39
2018-01-30T05:04:54.204Z,4.37
2018-01-30T05:07:22.109Z,4.35
2018-01-30T05:09:50.249Z,4.36
2018-01-30T05:12:17.953Z,4.37
2018-01-30T05:14:48.753Z,4.33
2018-01-30T05:17:18.622Z,4.32
2018-01-30T05:19:48.791Z,4.26
2018-01-30T05:22:16.737Z,4.25
2018-01-30T05:24:44.712Z,4.25
2018-01-30T05:27:17.168Z,4.20
2018-01-30T05:29:46.221Z,4.21
2018-01-30T05:32:15.387Z,4.17
2018-01-30T05:34:44.428Z,4.19
2018-01-30T05:37:13.320Z,4.17
2018-01-30T05:39:41.064Z,4.18
2018-01-30T05:42:09.905Z,4.17
2018-01-30T05:44:38.440Z,4.15
2018-01-30T05:47:07.808Z,4.16
2018-01-30T05:49:35.705Z,4.17
2018-01-30T05:52:03.544Z,4.13
2018-01-30T05:54:31.316Z,4.12
2018-01-30T05:56:59.078Z,4.12
2018-01-30T05:59:26.913Z,4.17
2018-01-30T06:01:54.695Z,4.20
2018-01-30T06:04:22.409Z,4.19
2018-01-30T06:06:50.220Z,4.22
2018-01-30T06:09:18.015Z,4.24
2018-01-30T06:11:45.817Z,4.26
2018-01-30T06:14:13.665Z,4.22
2018-01-30T06:16:41.436Z,4.23
2018-01-30T06:19:09.663Z,4.23
2018-01-30T06:21:37.458Z,4.22
2018-01-30T06:24:05.290Z,4.22
2018-01-30T06:26:33.076Z,4.23
2018-01-30T06:29:00.780Z,4.22
2018-01-30T06:31:28.478Z,4.19
2018-01-30T06:33:56.264Z,4.21
2018-01-30T06:36:24.327Z,4.20
2018-01-30T06:38:52.508Z,4.17
2018-01-30T06:41:20.232Z,4.12
2018-01-30T06:43:48.161Z,4.09
2018-01-30T06:46:16.015Z,4.06
2018-01-30T06:48:43.759Z,4.02
2018-01-30T06:51:12.801Z,4.03
2018-01-30T06:53:40.589Z,4.04
2018-01-30T06:56:08.319Z,4.03
2018-01-30T06:58:36.129Z,4.01
2018-01-30T07:01:04.224Z,4.00
2018-01-30T07:03:31.984Z,3.96
2018-01-30T07:06:00.266Z,3.94
2018-01-30T07:08:28.117Z,3.92
2018-01-30T07:10:55.999Z,3.90
2018-01-30T07:13:24.143Z,3.87
2018-01-30T07:15:52.049Z,3.86
2018-01-30T07:18:21.630Z,3.81
2018-01-30T07:20:49.949Z,3.80
2018-01-30T07:23:17.713Z,3.77
2018-01-30T07:25:45.507Z,3.77
2018-01-30T07:28:13.252Z,3.76
2018-01-30T07:30:41.121Z,3.71
2018-01-30T07:33:09.144Z,3.74
2018-01-30T07:35:36.938Z,3.69
2018-01-30T07:38:04.679Z,3.71
2018-01-30T07:40:32.400Z,3.70
2018-01-30T07:43:00.145Z,3.69
2018-01-30T07:45:28.306Z,3.70
2018-01-30T07:47:56.049Z,3.69
2018-01-30T07:50:24.183Z,3.67
2018-01-30T07:52:52.037Z,3.68
2018-01-30T07:55:20.070Z,3.67
2018-01-30T07:57:57.455Z,3.70
2018-01-30T08:00:28.054Z,3.72
2018-01-30T08:02:56.708Z,3.73
2018-01-30T08:05:24.480Z,3.74
2018-01-30T08:07:54.779Z,3.77
2018-01-30T08:10:22.531Z,3.77
2018-01-30T08:12:50.256Z,3.79
2018-01-30T08:15:18.133Z,3.82
2018-01-30T08:17:47.597Z,3.83
2018-01-30T08:20:15.407Z,3.84
2018-01-30T08:22:46.900Z,3.87
2018-01-30T08:25:16.011Z,3.91
2018-01-30T08:27:43.802Z,3.94
2018-01-30T08:30:11.577Z,4.00
2018-01-30T08:32:39.786Z,4.04
2018-01-30T08:35:07.611Z,4.07
2018-01-30T08:37:35.475Z,4.13
2018-01-30T08:40:03.362Z,4.17
2018-01-30T08:42:31.177Z,4.23
2018-01-30T08:44:58.919Z,4.30
2018-01-30T08:47:26.764Z,4.38
2018-01-30T08:49:54.621Z,4.43
2018-01-30T08:52:22.499Z,4.49
2018-01-30T08:54:50.260Z,4.52
2018-01-30T08:57:18.072Z,4.56
2018-01-30T08:59:46.654Z,4.60
2018-01-30T09:02:14.460Z,4.64
2018-01-30T09:04:42.373Z,4.68
2018-01-30T09:07:10.178Z,4.73
2018-01-30T09:09:38.056Z,4.76
2018-01-30T09:12:05.872Z,4.81
2018-01-30T09:14:34.711Z,4.87
2018-01-30T09:17:02.626Z,4.94
2018-01-30T09:19:30.404Z,5.03
2018-01-30T09:21:58.249Z,5.11
2018-01-30T09:24:26.212Z,5.19
2018-01-30T09:26:55.177Z,5.23
2018-01-30T09:29:23.399Z,5.26
2018-01-30T09:31:51.174Z,5.29
2018-01-30T09:34:19.987Z,5.36
2018-01-30T09:36:47.828Z,5.42
2018-01-30T09:39:15.819Z,5.44
2018-01-30T09:41:43.957Z,5.48
2018-01-30T09:44:12.983Z,5.54
2018-01-30T09:46:40.821Z,5.60
2018-01-30T09:49:09.090Z,5.65
2018-01-30T09:51:38.941Z,5.70
2018-01-30T09:54:07.845Z,5.73
2018-01-30T09:56:35.649Z,5.78
2018-01-30T09:59:03.527Z,5.83
2018-01-30T10:01:33.367Z,5.84
2018-01-30T10:04:01.246Z,5.90
2018-01-30T10:06:29.029Z,5.92
2018-01-30T10:08:56.845Z,5.94
2018-01-30T10:11:24.701Z,5.96
2018-01-30T10:13:54.298Z,6.02
2018-01-30T10:16:22.140Z,6.00
2018-01-30T10:18:50.317Z,6.00
2018-01-30T10:21:18.187Z,6.00
2018-01-30T10:23:46.398Z,6.03
2018-01-30T10:26:14.212Z,6.05
2018-01-30T10:28:42.024Z,6.10
2018-01-30T10:31:10.413Z,6.18
2018-01-30T10:33:38.359Z,6.23
2018-01-30T10:36:06.599Z,6.28
2018-01-30T10:38:34.455Z,6.34
2018-01-30T10:41:02.231Z,6.39
2018-01-30T10:43:30.118Z,6.43
2018-01-30T10:45:58.206Z,6.48
2018-01-30T10:48:26.194Z,6.51
2018-01-30T10:50:54.107Z,6.52
2018-01-30T10:53:21.864Z,6.54
2018-01-30T10:55:49.722Z,6.52
2018-01-30T10:58:17.575Z,6.56
2018-01-30T11:00:45.629Z,6.57
2018-01-30T11:03:13.385Z,6.58
2018-01-30T11:05:41.212Z,6.59
2018-01-30T11:08:10.659Z,6.56
2018-01-30T11:10:38.424Z,6.59
2018-01-30T11:13:07.106Z,6.57
2018-01-30T11:15:35.407Z,6.62
2018-01-30T11:18:03.423Z,6.62
2018-01-30T11:20:31.728Z,6.66
2018-01-30T11:22:59.507Z,6.62
2018-01-30T11:25:27.267Z,6.64
2018-01-30T11:27:56.107Z,6.64
2018-01-30T11:30:24.263Z,6.69
2018-01-30T11:32:52.071Z,6.66
2018-01-30T11:35:20.021Z,6.71
2018-01-30T11:37:48.035Z,6.74
2018-01-30T11:40:16.071Z,6.78
2018-01-30T11:42:43.840Z,6.84
2018-01-30T11:45:11.831Z,6.90
2018-01-30T11:47:39.712Z,6.95
2018-01-30T11:50:08.859Z,7.02
2018-01-30T11:52:37.484Z,7.06
2018-01-30T11:55:05.312Z,7.11
2018-01-30T11:57:33.011Z,7.21
2018-01-30T12:00:00.948Z,7.29
2018-01-30T12:02:28.726Z,7.31
2018-01-30T12:04:56.841Z,7.34
2018-01-30T12:07:24.789Z,7.33
2018-01-30T12:09:52.585Z,7.32
2018-01-30T12:12:24.456Z,7.27
2018-01-30T12:14:53.003Z,7.28
2018-01-30T12:17:21.093Z,7.33
2018-01-30T12:19:48.880Z,7.31
2018-01-30T12:22:16.621Z,7.35
2018-01-30T12:24:44.649Z,7.37
2018-01-30T12:27:12.634Z,7.36
2018-01-30T12:29:40.444Z,7.38
2018-01-30T12:32:08.198Z,7.41
2018-01-30T12:34:37.056Z,7.41
2018-01-30T12:37:05.855Z,7.41
2018-01-30T12:39:33.643Z,7.42
2018-01-30T12:42:02.399Z,7.35
2018-01-30T12:44:30.276Z,7.34
2018-01-30T12:46:58.077Z,7.40
2018-01-30T12:49:25.945Z,7.40
2018-01-30T12:51:53.722Z,7.44
2018-01-30T12:54:23.418Z,7.51
2018-01-30T12:56:51.603Z,7.46
2018-01-30T12:59:19.354Z,7.51
2018-01-30T13:01:52.188Z,7.51
2018-01-30T13:04:22.780Z,7.51
2018-01-30T13:06:51.957Z,7.51
2018-01-30T13:09:19.836Z,7.54
2018-01-30T13:11:47.611Z,7.56
2018-01-30T13:14:15.391Z,7.60
2018-01-30T13:16:43.215Z,7.64
2018-01-30T13:19:10.996Z,7.65
2018-01-30T13:21:38.785Z,7.66
2018-01-30T13:24:08.748Z,7.63
2018-01-30T13:26:36.511Z,7.69
2018-01-30T13:29:04.325Z,7.67
2018-01-30T13:31:32.081Z,7.72
2018-01-30T13:33:59.755Z,7.73
2018-01-30T13:36:27.515Z,7.73
2018-01-30T13:38:56.388Z,7.73
2018-01-30T13:41:24.088Z,7.78
2018-01-30T13:43:51.813Z,7.82
2018-01-30T13:46:19.607Z,7.81
2018-01-30T13:48:47.420Z,7.81
2018-01-30T13:51:15.178Z,7.80
2018-01-30T13:53:42.963Z,7.83
2018-01-30T13:56:10.780Z,7.77
2018-01-30T13:58:39.156Z,7.73
2018-01-30T14:01:06.884Z,7.73
2018-01-30T14:03:34.615Z,7.75
2018-01-30T14:06:02.473Z,7.79
2018-01-30T14:08:30.391Z,7.74
2018-01-30T14:10:58.270Z,7.69
2018-01-30T14:13:26.017Z,7.73
2018-01-30T14:15:53.955Z,7.67
2018-01-30T14:18:21.819Z,7.66
2018-01-30T14:20:49.548Z,7.66
2018-01-30T14:23:17.687Z,7.58
2018-01-30T14:25:45.384Z,7.59
2018-01-30T14:28:13.193Z,7.60
2018-01-30T14:30:41.396Z,7.60
2018-01-30T14:33:09.161Z,7.57
2018-01-30T14:35:36.895Z,7.43
2018-01-30T14:38:05.074Z,7.36
2018-01-30T14:40:32.874Z,7.28
2018-01-30T14:43:00.629Z,7.22
2018-01-30T14:45:28.418Z,7.16
2018-01-30T14:47:56.091Z,7.12
2018-01-30T14:50:24.217Z,7.11
2018-01-30T14:52:52.048Z,7.11
2018-01-30T14:55:20.767Z,7.07
2018-01-30T14:57:48.994Z,7.07
2018-01-30T15:00:16.734Z,7.04
2018-01-30T15:02:44.462Z,7.05
2018-01-30T15:05:12.487Z,7.05
2018-01-30T15:07:40.228Z,7.04
2018-01-30T15:10:08.118Z,7.03
2018-01-30T15:12:36.967Z,7.01
2018-01-30T15:15:06.167Z,7.03
2018-01-30T15:17:33.948Z,7.04
2018-01-30T15:20:01.791Z,7.04
2018-01-30T15:22:33.789Z,7.07
2018-01-30T15:25:05.183Z,7.06
2018-01-30T15:27:33.287Z,7.05
2018-01-30T15:30:03.357Z,7.02
2018-01-30T15:32:32.032Z,7.00
2018-01-30T15:34:59.794Z,6.95
2018-01-30T15:37:27.449Z,6.91
2018-01-30T15:39:55.316Z,6.86
2018-01-30T15:42:23.118Z,6.83
2018-01-30T15:44:50.874Z,6.81
2018-01-30T15:47:18.618Z,6.79
2018-01-30T15:49:46.392Z,6.75
2018-01-30T15:52:14.402Z,6.72
2018-01-30T15:54:42.154Z,6.71
2018-01-30T15:57:09.941Z,6.67
2018-01-30T15:59:37.676Z,6.64
2018-01-30T16:02:05.485Z,6.63
2018-01-30T16:04:33.257Z,6.59
2018-01-30T16:07:01.046Z,6.54
2018-01-30T16:09:30.041Z,6.47
2018-01-30T16:11:57.746Z,6.39
2018-01-30T16:14:25.565Z,6.31
2018-01-30T16:19:28.660Z,6.24
2018-01-30T16:21:56.395Z,6.22
2018-01-30T16:24:24.136Z,6.20
2018-01-30T16:26:51.873Z,6.18
2018-01-30T16:29:19.995Z,6.16
2018-01-30T16:31:47.755Z,6.13
2018-01-30T16:34:15.516Z,6.06
2018-01-30T16:36:43.347Z,6.03
2018-01-30T16:39:11.023Z,5.95
2018-01-30T16:41:38.740Z,5.91
2018-01-30T16:44:06.454Z,5.89
2018-01-30T16:46:34.184Z,5.86
2018-01-30T16:49:01.862Z,5.83
2018-01-30T16:51:29.588Z,5.81
2018-01-30T16:53:57.515Z,5.78
2018-01-30T16:56:25.228Z,5.74
2018-01-30T16:58:53.044Z,5.67
2018-01-30T17:01:20.792Z,5.62
2018-01-30T17:03:48.513Z,5.60
2018-01-30T17:06:16.149Z,5.59
2018-01-30T17:08:43.901Z,5.55
2018-01-30T17:11:11.597Z,5.52
2018-01-30T17:13:39.328Z,5.53
2018-01-30T17:16:07.113Z,5.51
2018-01-30T17:18:35.384Z,5.48
2018-01-30T17:21:03.068Z,5.46
2018-01-30T17:23:30.823Z,5.43
2018-01-30T17:25:58.535Z,5.39
2018-01-30T17:28:26.244Z,5.36
2018-01-30T17:30:53.942Z,5.33
2018-01-30T17:33:21.733Z,5.31
2018-01-30T17:35:49.441Z,5.27
2018-01-30T17:38:17.620Z,5.25
2018-01-30T17:40:45.305Z,5.23
2018-01-30T17:43:13.066Z,5.19
2018-01-30T17:45:40.770Z,5.15
2018-01-30T17:48:08.460Z,5.14
2018-01-30T17:50:36.202Z,5.12
2018-01-30T17:53:03.922Z,5.11
2018-01-30T17:55:31.618Z,5.11
2018-01-30T17:57:59.375Z,5.10
2018-01-30T18:00:28.193Z,5.10
2018-01-30T18:02:55.884Z,5.06
2018-01-30T18:05:23.601Z,5.05
2018-01-30T18:07:51.292Z,5.04
2018-01-30T18:10:19.067Z,5.02
2018-01-30T18:12:46.784Z,5.00
2018-01-30T18:15:14.905Z,4.95
2018-01-30T18:17:42.697Z,4.93
2018-01-30T18:20:10.472Z,4.91
2018-01-30T18:22:38.264Z,4.87
2018-01-30T18:25:06.029Z,4.83
2018-01-30T18:27:33.723Z,4.78
2018-01-30T18:30:01.488Z,4.77
2018-01-30T18:32:29.737Z,4.75
2018-01-30T18:34:57.490Z,4.72
2018-01-30T18:37:25.213Z,4.70
2018-01-30T18:39:52.987Z,4.68
2018-01-30T18:42:20.720Z,4.62
2018-01-30T18:44:48.433Z,4.61
2018-01-30T18:47:16.114Z,4.60
2018-01-30T18:49:43.794Z,4.60
2018-01-30T18:52:11.592Z,4.59
2018-01-30T18:54:39.751Z,4.59
2018-01-30T18:57:07.831Z,4.54
2018-01-30T18:59:35.554Z,4.53
2018-01-30T19:02:03.382Z,4.49
2018-01-30T19:04:31.093Z,4.47
2018-01-30T19:06:58.869Z,4.43
2018-01-30T19:09:26.672Z,4.39
2018-01-30T19:11:54.683Z,4.38
2018-01-30T19:14:22.437Z,4.38
2018-01-30T19:16:50.234Z,4.37
2018-01-30T19:19:17.998Z,4.37
2018-01-30T19:21:45.741Z,4.38
2018-01-30T19:24:13.521Z,4.33
2018-01-30T19:26:41.230Z,4.34
2018-01-30T19:29:12.146Z,4.33
2018-01-30T19:31:40.176Z,4.35
2018-01-30T19:36:41.962Z,4.35
2018-01-30T19:39:09.722Z,4.34
2018-01-30T19:41:38.107Z,4.32
2018-01-30T19:44:06.358Z,4.34
2018-01-30T19:46:34.125Z,4.33
2018-01-30T19:49:01.873Z,4.32
2018-01-30T19:51:29.705Z,4.30
2018-01-30T19:53:57.451Z,4.29
2018-01-30T19:56:25.327Z,4.31
2018-01-30T19:58:53.158Z,4.29
2018-01-30T20:01:22.476Z,4.28
2018-01-30T20:03:51.176Z,4.24
2018-01-30T20:06:18.931Z,4.23
2018-01-30T20:08:46.597Z,4.22
2018-01-30T20:11:14.322Z,4.19
2018-01-30T20:13:42.129Z,4.20
2018-01-30T20:16:09.895Z,4.18
2018-01-30T20:18:38.423Z,4.17
2018-01-30T20:21:06.193Z,4.18
2018-01-30T20:23:34.280Z,4.18
2018-01-30T20:26:01.957Z,4.18
2018-01-30T20:28:29.626Z,4.19
2018-01-30T20:30:57.329Z,4.17
2018-01-30T20:33:25.031Z,4.16
2018-01-30T20:35:53.034Z,4.15
2018-01-30T20:38:20.727Z,4.15
2018-01-30T20:40:48.417Z,4.13
2018-01-30T20:43:17.047Z,4.13
2018-01-30T20:45:44.914Z,4.12
2018-01-30T20:48:12.720Z,4.09
2018-01-30T20:50:40.530Z,4.07
2018-01-30T20:53:08.339Z,4.06
2018-01-30T20:55:36.054Z,4.05
2018-01-30T20:58:03.873Z,4.06
2018-01-30T21:00:31.631Z,4.04
2018-01-30T21:02:59.375Z,4.03
2018-01-30T21:05:27.116Z,4.03
2018-01-30T21:07:54.861Z,4.03
2018-01-30T21:10:22.607Z,4.01
2018-01-30T21:12:50.649Z,3.98
2018-01-30T21:15:18.406Z,3.98
2018-01-30T21:17:46.121Z,3.98
2018-01-30T21:20:13.959Z,3.98
2018-01-30T21:22:41.672Z,3.97
2018-01-30T21:25:09.378Z,3.95
2018-01-30T21:27:37.548Z,3.92
2018-01-30T21:30:05.302Z,3.89
2018-01-30T21:32:33.101Z,3.90
2018-01-30T21:35:00.895Z,3.90
2018-01-30T21:37:28.695Z,3.89
2018-01-30T21:39:56.421Z,3.90
2018-01-30T21:42:24.169Z,3.89
2018-01-30T21:44:51.925Z,3.87
2018-01-30T21:47:19.978Z,3.86
2018-01-30T21:49:47.675Z,3.86
2018-01-30T21:52:19.031Z,3.86
2018-01-30T21:54:50.656Z,3.81
2018-01-30T21:57:18.423Z,3.79
2018-01-30T21:59:46.184Z,3.77
2018-01-30T22:02:13.879Z,3.77
2018-01-30T22:04:41.983Z,3.73
2018-01-30T22:07:09.698Z,3.67
2018-01-30T22:09:37.444Z,3.62
2018-01-30T22:12:05.405Z,3.59
2018-01-30T22:14:33.047Z,3.56
2018-01-30T22:17:00.823Z,3.53
2018-01-30T22:19:28.571Z,3.52
2018-01-30T22:21:56.231Z,3.54
2018-01-30T22:24:24.001Z,3.54
2018-01-30T22:26:51.816Z,3.53
2018-01-30T22:29:19.523Z,3.53
2018-01-30T22:31:47.239Z,3.53
2018-01-30T22:34:15.063Z,3.53
2018-01-30T22:36:42.744Z,3.51
2018-01-30T22:39:10.500Z,3.51
2018-01-30T22:41:38.213Z,3.53
2018-01-30T22:44:06.619Z,3.51
2018-01-30T22:46:34.432Z,3.48
